sensor_id;sensor_type;location;lat;lon;timestamp;pressure;altitude;pressure_sealevel;temperature
12918;BMP180;6526;54.312;13.092;2022-10-16T00:03:33;101238.00;;;18.00
12918;BMP180;6526;54.312;13.092;2022-10-16T00:06:00;101253.00;;;18.00
12918;BMP180;6526;54.312;13.092;2022-10-16T00:08:26;101238.00;;;17.90
12918;BMP180;6526;54.312;13.092;2022-10-16T00:10:52;101241.00;;;17.90
12918;BMP180;6526;54.312;13.092;2022-10-16T00:13:18;101241.00;;;17.90
12918;BMP180;6526;54.312;13.092;2022-10-16T00:15:46;101235.00;;;17.90
12918;BMP180;6526;54.312;13.092;2022-10-16T00:18:12;101240.00;;;17.90
12918;BMP180;6526;54.312;13.092;2022-10-16T00:20:40;101247.00;;;18.00
12918;BMP180;6526;54.312;13.092;2022-10-16T00:23:06;101249.00;;;18.10
12918;BMP180;6526;54.312;13.092;2022-10-16T00:25:32;101252.00;;;18.00
12918;BMP180;6526;54.312;13.092;2022-10-16T00:28:00;101261.00;;;17.90
12918;BMP180;6526;54.312;13.092;2022-10-16T00:30:26;101253.00;;;18.00
12918;BMP180;6526;54.312;13.092;2022-10-16T00:32:53;101261.00;;;18.00
12918;BMP180;6526;54.312;13.092;2022-10-16T00:35:19;101271.00;;;17.90
12918;BMP180;6526;54.312;13.092;2022-10-16T00:37:45;101266.00;;;17.90
12918;BMP180;6526;54.312;13.092;2022-10-16T00:40:11;101263.00;;;17.80
12918;BMP180;6526;54.312;13.092;2022-10-16T00:42:37;101266.00;;;17.80
12918;BMP180;6526;54.312;13.092;2022-10-16T00:45:05;101274.00;;;17.80
12918;BMP180;6526;54.312;13.092;2022-10-16T00:52:31;101282.00;;;17.80
12918;BMP180;6526;54.312;13.092;2022-10-16T00:54:58;101284.00;;;17.90
12918;BMP180;6526;54.312;13.092;2022-10-16T00:57:26;101285.00;;;17.80
12918;BMP180;6526;54.312;13.092;2022-10-16T00:59:52;101276.00;;;17.80
12918;BMP180;6526;54.312;13.092;2022-10-16T01:02:19;101275.00;;;17.80
12918;BMP180;6526;54.312;13.092;2022-10-16T01:04:52;101280.00;;;17.80
12918;BMP180;6526;54.312;13.092;2022-10-16T01:13:04;101305.00;;;17.80
12918;BMP180;6526;54.312;13.092;2022-10-16T01:18:22;101303.00;;;17.80
12918;BMP180;6526;54.312;13.092;2022-10-16T01:21:08;101300.00;;;17.70
12918;BMP180;6526;54.312;13.092;2022-10-16T01:27:09;101306.00;;;17.70
12918;BMP180;6526;54.312;13.092;2022-10-16T01:30:04;101316.00;;;17.60
12918;BMP180;6526;54.312;13.092;2022-10-16T01:32:50;101300.00;;;17.70
12918;BMP180;6526;54.312;13.092;2022-10-16T01:35:32;101306.00;;;17.50
12918;BMP180;6526;54.312;13.092;2022-10-16T01:38:16;101320.00;;;17.50
12918;BMP180;6526;54.312;13.092;2022-10-16T01:40:51;101317.00;;;17.60
12918;BMP180;6526;54.312;13.092;2022-10-16T01:43:25;101329.00;;;17.60
12918;BMP180;6526;54.312;13.092;2022-10-16T01:45:53;101325.00;;;17.60
12918;BMP180;6526;54.312;13.092;2022-10-16T01:48:21;101339.00;;;17.60
12918;BMP180;6526;54.312;13.092;2022-10-16T01:50:57;101345.00;;;17.70
12918;BMP180;6526;54.312;13.092;2022-10-16T01:53:26;101342.00;;;17.60
12918;BMP180;6526;54.312;13.092;2022-10-16T01:55:53;101338.00;;;17.60
12918;BMP180;6526;54.312;13.092;2022-10-16T01:58:20;101329.00;;;17.60
12918;BMP180;6526;54.312;13.092;2022-10-16T02:00:48;101337.00;;;17.70
12918;BMP180;6526;54.312;13.092;2022-10-16T02:03:17;101339.00;;;17.70
12918;BMP180;6526;54.312;13.092;2022-10-16T02:05:51;101346.00;;;17.70
12918;BMP180;6526;54.312;13.092;2022-10-16T02:08:19;101338.00;;;17.80
12918;BMP180;6526;54.312;13.092;2022-10-16T02:10:45;101341.00;;;17.70
12918;BMP180;6526;54.312;13.092;2022-10-16T02:13:16;101335.00;;;17.70
12918;BMP180;6526;54.312;13.092;2022-10-16T02:15:43;101330.00;;;17.80
12918;BMP180;6526;54.312;13.092;2022-10-16T02:18:10;101338.00;;;17.80
12918;BMP180;6526;54.312;13.092;2022-10-16T02:23:23;101338.00;;;17.70
12918;BMP180;6526;54.312;13.092;2022-10-16T02:25:51;101341.00;;;17.70
12918;BMP180;6526;54.312;13.092;2022-10-16T02:28:34;101342.00;;;17.70
12918;BMP180;6526;54.312;13.092;2022-10-16T02:31:04;101337.00;;;17.70
12918;BMP180;6526;54.312;13.092;2022-10-16T02:33:31;101348.00;;;17.60
12918;BMP180;6526;54.312;13.092;2022-10-16T02:35:58;101337.00;;;17.60
12918;BMP180;6526;54.312;13.092;2022-10-16T02:38:25;101339.00;;;17.50
12918;BMP180;6526;54.312;13.092;2022-10-16T02:40:51;101359.00;;;17.60
12918;BMP180;6526;54.312;13.092;2022-10-16T02:43:18;101363.00;;;17.50
12918;BMP180;6526;54.312;13.092;2022-10-16T02:45:44;101358.00;;;17.50
12918;BMP180;6526;54.312;13.092;2022-10-16T02:48:11;101358.00;;;17.50
12918;BMP180;6526;54.312;13.092;2022-10-16T02:50:37;101352.00;;;17.60
12918;BMP180;6526;54.312;13.092;2022-10-16T02:53:03;101362.00;;;17.60
12918;BMP180;6526;54.312;13.092;2022-10-16T02:55:29;101358.00;;;17.60
12918;BMP180;6526;54.312;13.092;2022-10-16T02:57:56;101344.00;;;17.70
12918;BMP180;6526;54.312;13.092;2022-10-16T03:00:22;101348.00;;;17.80
12918;BMP180;6526;54.312;13.092;2022-10-16T03:02:48;101342.00;;;17.70
12918;BMP180;6526;54.312;13.092;2022-10-16T03:05:14;101343.00;;;17.70
12918;BMP180;6526;54.312;13.092;2022-10-16T03:07:41;101349.00;;;17.70
12918;BMP180;6526;54.312;13.092;2022-10-16T03:10:07;101349.00;;;17.70
12918;BMP180;6526;54.312;13.092;2022-10-16T03:12:33;101367.00;;;17.60
12918;BMP180;6526;54.312;13.092;2022-10-16T03:14:59;101369.00;;;17.60
12918;BMP180;6526;54.312;13.092;2022-10-16T03:17:25;101367.00;;;17.50
12918;BMP180;6526;54.312;13.092;2022-10-16T03:19:51;101381.00;;;17.60
12918;BMP180;6526;54.312;13.092;2022-10-16T03:22:17;101366.00;;;17.70
12918;BMP180;6526;54.312;13.092;2022-10-16T03:24:43;101373.00;;;17.70
12918;BMP180;6526;54.312;13.092;2022-10-16T03:27:09;101369.00;;;17.60
12918;BMP180;6526;54.312;13.092;2022-10-16T03:29:35;101376.00;;;17.70
12918;BMP180;6526;54.312;13.092;2022-10-16T03:32:02;101384.00;;;17.80
12918;BMP180;6526;54.312;13.092;2022-10-16T03:34:28;101381.00;;;17.70
12918;BMP180;6526;54.312;13.092;2022-10-16T03:36:54;101369.00;;;17.70
12918;BMP180;6526;54.312;13.092;2022-10-16T03:39:20;101377.00;;;17.60
12918;BMP180;6526;54.312;13.092;2022-10-16T03:41:46;101383.00;;;17.70
12918;BMP180;6526;54.312;13.092;2022-10-16T03:44:13;101390.00;;;17.60
12918;BMP180;6526;54.312;13.092;2022-10-16T03:46:39;101389.00;;;17.60
12918;BMP180;6526;54.312;13.092;2022-10-16T03:49:05;101388.00;;;17.50
12918;BMP180;6526;54.312;13.092;2022-10-16T03:51:31;101400.00;;;17.60
12918;BMP180;6526;54.312;13.092;2022-10-16T03:53:57;101397.00;;;17.50
12918;BMP180;6526;54.312;13.092;2022-10-16T03:56:23;101388.00;;;17.50
12918;BMP180;6526;54.312;13.092;2022-10-16T03:58:49;101391.00;;;17.60
12918;BMP180;6526;54.312;13.092;2022-10-16T04:01:16;101385.00;;;17.50
12918;BMP180;6526;54.312;13.092;2022-10-16T04:03:42;101386.00;;;17.50
12918;BMP180;6526;54.312;13.092;2022-10-16T04:06:08;101393.00;;;17.50
12918;BMP180;6526;54.312;13.092;2022-10-16T04:08:34;101399.00;;;17.50
12918;BMP180;6526;54.312;13.092;2022-10-16T04:11:02;101402.00;;;17.50
12918;BMP180;6526;54.312;13.092;2022-10-16T04:13:28;101412.00;;;17.50
12918;BMP180;6526;54.312;13.092;2022-10-16T04:15:55;101416.00;;;17.50
12918;BMP180;6526;54.312;13.092;2022-10-16T04:18:21;101418.00;;;17.40
12918;BMP180;6526;54.312;13.092;2022-10-16T04:20:47;101402.00;;;17.40
12918;BMP180;6526;54.312;13.092;2022-10-16T04:23:13;101416.00;;;17.50
12918;BMP180;6526;54.312;13.092;2022-10-16T04:25:39;101407.00;;;17.50
12918;BMP180;6526;54.312;13.092;2022-10-16T04:28:05;101408.00;;;17.50
12918;BMP180;6526;54.312;13.092;2022-10-16T04:30:31;101405.00;;;17.40
12918;BMP180;6526;54.312;13.092;2022-10-16T04:32:57;101392.00;;;17.50
12918;BMP180;6526;54.312;13.092;2022-10-16T04:35:23;101394.00;;;17.50
12918;BMP180;6526;54.312;13.092;2022-10-16T04:37:49;101420.00;;;17.50
12918;BMP180;6526;54.312;13.092;2022-10-16T04:40:16;101427.00;;;17.40
12918;BMP180;6526;54.312;13.092;2022-10-16T04:42:42;101424.00;;;17.40
12918;BMP180;6526;54.312;13.092;2022-10-16T04:45:08;101434.00;;;17.30
12918;BMP180;6526;54.312;13.092;2022-10-16T04:47:35;101422.00;;;17.30
12918;BMP180;6526;54.312;13.092;2022-10-16T04:50:01;101423.00;;;17.20
12918;BMP180;6526;54.312;13.092;2022-10-16T04:52:28;101423.00;;;17.30
12918;BMP180;6526;54.312;13.092;2022-10-16T04:54:54;101428.00;;;17.40
12918;BMP180;6526;54.312;13.092;2022-10-16T04:57:22;101419.00;;;17.30
12918;BMP180;6526;54.312;13.092;2022-10-16T04:59:48;101423.00;;;17.30
12918;BMP180;6526;54.312;13.092;2022-10-16T05:02:14;101427.00;;;17.20
12918;BMP180;6526;54.312;13.092;2022-10-16T05:04:40;101431.00;;;17.20
12918;BMP180;6526;54.312;13.092;2022-10-16T05:07:06;101427.00;;;17.20
12918;BMP180;6526;54.312;13.092;2022-10-16T05:09:32;101427.00;;;17.20
12918;BMP180;6526;54.312;13.092;2022-10-16T05:11:58;101432.00;;;17.10
12918;BMP180;6526;54.312;13.092;2022-10-16T05:14:24;101429.00;;;17.10
12918;BMP180;6526;54.312;13.092;2022-10-16T05:16:50;101423.00;;;17.10
12918;BMP180;6526;54.312;13.092;2022-10-16T05:19:16;101430.00;;;17.00
12918;BMP180;6526;54.312;13.092;2022-10-16T05:21:42;101410.00;;;17.00
12918;BMP180;6526;54.312;13.092;2022-10-16T05:24:08;101430.00;;;16.80
12918;BMP180;6526;54.312;13.092;2022-10-16T05:26:35;101423.00;;;17.00
12918;BMP180;6526;54.312;13.092;2022-10-16T05:29:01;101424.00;;;16.90
12918;BMP180;6526;54.312;13.092;2022-10-16T05:31:27;101434.00;;;16.90
12918;BMP180;6526;54.312;13.092;2022-10-16T05:33:57;101438.00;;;16.90
12918;BMP180;6526;54.312;13.092;2022-10-16T05:36:23;101440.00;;;16.80
12918;BMP180;6526;54.312;13.092;2022-10-16T05:38:51;101443.00;;;17.00
12918;BMP180;6526;54.312;13.092;2022-10-16T05:41:17;101436.00;;;16.90
12918;BMP180;6526;54.312;13.092;2022-10-16T05:43:47;101437.00;;;16.90
12918;BMP180;6526;54.312;13.092;2022-10-16T05:46:14;101448.00;;;17.00
12918;BMP180;6526;54.312;13.092;2022-10-16T05:48:40;101453.00;;;16.90
12918;BMP180;6526;54.312;13.092;2022-10-16T05:51:09;101455.00;;;17.00
12918;BMP180;6526;54.312;13.092;2022-10-16T05:53:36;101461.00;;;16.90
12918;BMP180;6526;54.312;13.092;2022-10-16T05:56:04;101466.00;;;16.90
12918;BMP180;6526;54.312;13.092;2022-10-16T05:58:32;101467.00;;;16.90
12918;BMP180;6526;54.312;13.092;2022-10-16T06:01:03;101469.00;;;16.90
12918;BMP180;6526;54.312;13.092;2022-10-16T06:03:29;101463.00;;;16.80
12918;BMP180;6526;54.312;13.092;2022-10-16T06:05:55;101469.00;;;16.90
12918;BMP180;6526;54.312;13.092;2022-10-16T06:08:22;101471.00;;;16.80
12918;BMP180;6526;54.312;13.092;2022-10-16T06:10:49;101487.00;;;16.90
12918;BMP180;6526;54.312;13.092;2022-10-16T06:13:25;101492.00;;;16.90
12918;BMP180;6526;54.312;13.092;2022-10-16T06:15:51;101486.00;;;16.90
12918;BMP180;6526;54.312;13.092;2022-10-16T06:18:17;101491.00;;;16.90
12918;BMP180;6526;54.312;13.092;2022-10-16T06:20:43;101493.00;;;16.90
12918;BMP180;6526;54.312;13.092;2022-10-16T06:23:09;101482.00;;;16.80
12918;BMP180;6526;54.312;13.092;2022-10-16T06:25:35;101502.00;;;16.80
12918;BMP180;6526;54.312;13.092;2022-10-16T06:28:01;101517.00;;;16.90
12918;BMP180;6526;54.312;13.092;2022-10-16T06:30:27;101514.00;;;16.80
12918;BMP180;6526;54.312;13.092;2022-10-16T06:32:53;101513.00;;;16.80
12918;BMP180;6526;54.312;13.092;2022-10-16T06:35:19;101511.00;;;16.90
12918;BMP180;6526;54.312;13.092;2022-10-16T06:37:45;101515.00;;;17.00
12918;BMP180;6526;54.312;13.092;2022-10-16T06:40:11;101458.00;;;16.90
12918;BMP180;6526;54.312;13.092;2022-10-16T06:42:40;101517.00;;;17.00
12918;BMP180;6526;54.312;13.092;2022-10-16T06:45:06;101518.00;;;17.00
12918;BMP180;6526;54.312;13.092;2022-10-16T06:47:32;101520.00;;;17.00
12918;BMP180;6526;54.312;13.092;2022-10-16T06:49:58;101527.00;;;17.00
12918;BMP180;6526;54.312;13.092;2022-10-16T06:52:24;101535.00;;;17.00
12918;BMP180;6526;54.312;13.092;2022-10-16T06:54:53;101549.00;;;17.00
12918;BMP180;6526;54.312;13.092;2022-10-16T06:57:19;101545.00;;;17.00
12918;BMP180;6526;54.312;13.092;2022-10-16T06:59:45;101553.00;;;17.00
12918;BMP180;6526;54.312;13.092;2022-10-16T07:02:11;101555.00;;;17.00
12918;BMP180;6526;54.312;13.092;2022-10-16T07:04:37;101556.00;;;17.00
12918;BMP180;6526;54.312;13.092;2022-10-16T07:07:03;101558.00;;;16.90
12918;BMP180;6526;54.312;13.092;2022-10-16T07:09:29;101559.00;;;16.90
12918;BMP180;6526;54.312;13.092;2022-10-16T07:11:55;101553.00;;;16.90
12918;BMP180;6526;54.312;13.092;2022-10-16T07:14:21;101566.00;;;17.00
12918;BMP180;6526;54.312;13.092;2022-10-16T07:16:48;101568.00;;;17.00
12918;BMP180;6526;54.312;13.092;2022-10-16T07:19:14;101571.00;;;17.20
12918;BMP180;6526;54.312;13.092;2022-10-16T07:21:43;101562.00;;;17.20
12918;BMP180;6526;54.312;13.092;2022-10-16T07:24:14;101571.00;;;17.20
12918;BMP180;6526;54.312;13.092;2022-10-16T07:26:42;101583.00;;;17.20
12918;BMP180;6526;54.312;13.092;2022-10-16T07:29:17;101582.00;;;17.20
12918;BMP180;6526;54.312;13.092;2022-10-16T07:31:44;101589.00;;;17.30
12918;BMP180;6526;54.312;13.092;2022-10-16T07:34:12;101587.00;;;17.30
12918;BMP180;6526;54.312;13.092;2022-10-16T07:36:38;101586.00;;;17.50
12918;BMP180;6526;54.312;13.092;2022-10-16T07:39:04;101590.00;;;17.70
12918;BMP180;6526;54.312;13.092;2022-10-16T07:41:31;101589.00;;;17.60
12918;BMP180;6526;54.312;13.092;2022-10-16T07:43:59;101605.00;;;17.70
12918;BMP180;6526;54.312;13.092;2022-10-16T07:46:27;101615.00;;;17.70
12918;BMP180;6526;54.312;13.092;2022-10-16T07:48:53;101613.00;;;17.80
12918;BMP180;6526;54.312;13.092;2022-10-16T07:51:23;101606.00;;;17.80
12918;BMP180;6526;54.312;13.092;2022-10-16T07:53:50;101618.00;;;17.80
12918;BMP180;6526;54.312;13.092;2022-10-16T07:56:17;101603.00;;;17.80
12918;BMP180;6526;54.312;13.092;2022-10-16T07:58:44;101605.00;;;17.90
12918;BMP180;6526;54.312;13.092;2022-10-16T08:01:13;101601.00;;;18.00
12918;BMP180;6526;54.312;13.092;2022-10-16T08:03:42;101612.00;;;18.10
12918;BMP180;6526;54.312;13.092;2022-10-16T08:06:08;101616.00;;;18.40
12918;BMP180;6526;54.312;13.092;2022-10-16T08:08:35;101605.00;;;18.60
12918;BMP180;6526;54.312;13.092;2022-10-16T08:11:01;101614.00;;;18.80
12918;BMP180;6526;54.312;13.092;2022-10-16T08:13:29;101613.00;;;19.00
12918;BMP180;6526;54.312;13.092;2022-10-16T08:15:55;101602.00;;;19.20
12918;BMP180;6526;54.312;13.092;2022-10-16T08:18:22;101606.00;;;19.30
12918;BMP180;6526;54.312;13.092;2022-10-16T08:20:54;101617.00;;;19.40
12918;BMP180;6526;54.312;13.092;2022-10-16T08:23:20;101613.00;;;19.60
12918;BMP180;6526;54.312;13.092;2022-10-16T08:25:46;101609.00;;;19.90
12918;BMP180;6526;54.312;13.092;2022-10-16T08:28:12;101615.00;;;20.20
12918;BMP180;6526;54.312;13.092;2022-10-16T08:30:38;101613.00;;;20.50
12918;BMP180;6526;54.312;13.092;2022-10-16T08:33:04;101623.00;;;20.70
12918;BMP180;6526;54.312;13.092;2022-10-16T08:35:31;101620.00;;;20.80
12918;BMP180;6526;54.312;13.092;2022-10-16T08:37:57;101616.00;;;21.00
12918;BMP180;6526;54.312;13.092;2022-10-16T08:40:26;101621.00;;;21.10
12918;BMP180;6526;54.312;13.092;2022-10-16T08:46:04;101621.00;;;21.30
12918;BMP180;6526;54.312;13.092;2022-10-16T08:48:50;101636.00;;;21.40
12918;BMP180;6526;54.312;13.092;2022-10-16T08:54:04;101630.00;;;21.60
12918;BMP180;6526;54.312;13.092;2022-10-16T08:56:31;101631.00;;;21.70
12918;BMP180;6526;54.312;13.092;2022-10-16T08:58:58;101641.00;;;21.60
12918;BMP180;6526;54.312;13.092;2022-10-16T09:01:50;101631.00;;;21.60
12918;BMP180;6526;54.312;13.092;2022-10-16T09:04:46;101643.00;;;21.70
12918;BMP180;6526;54.312;13.092;2022-10-16T09:07:27;101642.00;;;21.70
12918;BMP180;6526;54.312;13.092;2022-10-16T09:15:39;101636.00;;;21.20
12918;BMP180;6526;54.312;13.092;2022-10-16T09:18:20;101636.00;;;21.00
12918;BMP180;6526;54.312;13.092;2022-10-16T09:21:06;101637.00;;;21.20
12918;BMP180;6526;54.312;13.092;2022-10-16T09:23:36;101643.00;;;21.00
12918;BMP180;6526;54.312;13.092;2022-10-16T09:26:03;101650.00;;;20.90
12918;BMP180;6526;54.312;13.092;2022-10-16T09:28:30;101652.00;;;21.00
12918;BMP180;6526;54.312;13.092;2022-10-16T09:30:56;101641.00;;;21.00
12918;BMP180;6526;54.312;13.092;2022-10-16T09:33:25;101643.00;;;21.00
12918;BMP180;6526;54.312;13.092;2022-10-16T09:35:56;101640.00;;;21.00
12918;BMP180;6526;54.312;13.092;2022-10-16T09:38:31;101642.00;;;21.00
12918;BMP180;6526;54.312;13.092;2022-10-16T09:40:59;101636.00;;;20.90
12918;BMP180;6526;54.312;13.092;2022-10-16T09:46:21;101646.00;;;21.00
12918;BMP180;6526;54.312;13.092;2022-10-16T09:48:49;101635.00;;;21.00
12918;BMP180;6526;54.312;13.092;2022-10-16T09:51:27;101649.00;;;20.90
12918;BMP180;6526;54.312;13.092;2022-10-16T09:54:10;101638.00;;;20.80
12918;BMP180;6526;54.312;13.092;2022-10-16T09:56:38;101647.00;;;20.80
12918;BMP180;6526;54.312;13.092;2022-10-16T09:59:13;101660.00;;;20.90
12918;BMP180;6526;54.312;13.092;2022-10-16T10:01:41;101654.00;;;20.90
12918;BMP180;6526;54.312;13.092;2022-10-16T10:04:08;101653.00;;;21.00
12918;BMP180;6526;54.312;13.092;2022-10-16T10:06:46;101649.00;;;21.20
12918;BMP180;6526;54.312;13.092;2022-10-16T10:09:29;101649.00;;;21.30
12918;BMP180;6526;54.312;13.092;2022-10-16T10:12:02;101646.00;;;21.10
12918;BMP180;6526;54.312;13.092;2022-10-16T10:14:49;101653.00;;;21.10
12918;BMP180;6526;54.312;13.092;2022-10-16T10:17:26;101655.00;;;21.00
12918;BMP180;6526;54.312;13.092;2022-10-16T10:20:39;101661.00;;;21.10
12918;BMP180;6526;54.312;13.092;2022-10-16T10:22:46;101669.00;;;20.90
12918;BMP180;6526;54.312;13.092;2022-10-16T10:30:48;101669.00;;;21.20
12918;BMP180;6526;54.312;13.092;2022-10-16T10:33:39;101660.00;;;21.30
12918;BMP180;6526;54.312;13.092;2022-10-16T10:36:32;101659.00;;;21.60
12918;BMP180;6526;54.312;13.092;2022-10-16T10:39:02;101662.00;;;21.80
12918;BMP180;6526;54.312;13.092;2022-10-16T10:44:13;101655.00;;;22.40
12918;BMP180;6526;54.312;13.092;2022-10-16T10:46:55;101662.00;;;22.50
12918;BMP180;6526;54.312;13.092;2022-10-16T10:49:34;101653.00;;;22.40
12918;BMP180;6526;54.312;13.092;2022-10-16T10:52:31;101648.00;;;22.50
12918;BMP180;6526;54.312;13.092;2022-10-16T11:04:16;101653.00;;;23.80
12918;BMP180;6526;54.312;13.092;2022-10-16T11:06:50;101663.00;;;24.50
12918;BMP180;6526;54.312;13.092;2022-10-16T11:09:25;101656.00;;;24.80
12918;BMP180;6526;54.312;13.092;2022-10-16T11:12:14;101662.00;;;25.00
12918;BMP180;6526;54.312;13.092;2022-10-16T11:17:19;101659.00;;;24.70
12918;BMP180;6526;54.312;13.092;2022-10-16T11:20:16;101656.00;;;23.90
12918;BMP180;6526;54.312;13.092;2022-10-16T11:25:29;101668.00;;;23.40
12918;BMP180;6526;54.312;13.092;2022-10-16T11:28:10;101677.00;;;23.40
12918;BMP180;6526;54.312;13.092;2022-10-16T11:30:49;101680.00;;;23.40
12918;BMP180;6526;54.312;13.092;2022-10-16T11:40:56;101682.00;;;22.90
12918;BMP180;6526;54.312;13.092;2022-10-16T11:46:40;101693.00;;;23.30
12918;BMP180;6526;54.312;13.092;2022-10-16T11:51:39;101690.00;;;23.30
12918;BMP180;6526;54.312;13.092;2022-10-16T11:56:59;101684.00;;;23.30
12918;BMP180;6526;54.312;13.092;2022-10-16T11:59:30;101683.00;;;23.20
12918;BMP180;6526;54.312;13.092;2022-10-16T12:04:40;101694.00;;;23.20
12918;BMP180;6526;54.312;13.092;2022-10-16T12:07:34;101683.00;;;23.20
12918;BMP180;6526;54.312;13.092;2022-10-16T12:10:17;101691.00;;;23.20
12918;BMP180;6526;54.312;13.092;2022-10-16T12:12:44;101689.00;;;23.20
12918;BMP180;6526;54.312;13.092;2022-10-16T12:15:26;101695.00;;;23.10
12918;BMP180;6526;54.312;13.092;2022-10-16T12:17:53;101690.00;;;23.10
12918;BMP180;6526;54.312;13.092;2022-10-16T12:20:24;101684.00;;;23.10
12918;BMP180;6526;54.312;13.092;2022-10-16T12:23:00;101699.00;;;23.00
12918;BMP180;6526;54.312;13.092;2022-10-16T12:25:34;101687.00;;;23.20
12918;BMP180;6526;54.312;13.092;2022-10-16T12:30:38;101705.00;;;23.20
12918;BMP180;6526;54.312;13.092;2022-10-16T12:33:21;101703.00;;;23.20
12918;BMP180;6526;54.312;13.092;2022-10-16T12:35:48;101704.00;;;23.10
12918;BMP180;6526;54.312;13.092;2022-10-16T12:38:25;101706.00;;;23.20
12918;BMP180;6526;54.312;13.092;2022-10-16T12:41:05;101705.00;;;23.30
12918;BMP180;6526;54.312;13.092;2022-10-16T12:43:37;101711.00;;;23.50
12918;BMP180;6526;54.312;13.092;2022-10-16T12:49:19;101723.00;;;23.20
12918;BMP180;6526;54.312;13.092;2022-10-16T12:51:47;101731.00;;;23.30
12918;BMP180;6526;54.312;13.092;2022-10-16T13:00:02;101735.00;;;23.10
12918;BMP180;6526;54.312;13.092;2022-10-16T13:03:04;101747.00;;;23.10
12918;BMP180;6526;54.312;13.092;2022-10-16T13:06:14;101751.00;;;23.00
12918;BMP180;6526;54.312;13.092;2022-10-16T13:09:16;101762.00;;;23.10
12918;BMP180;6526;54.312;13.092;2022-10-16T13:17:47;101767.00;;;23.20
12918;BMP180;6526;54.312;13.092;2022-10-16T13:20:35;101761.00;;;23.00
12918;BMP180;6526;54.312;13.092;2022-10-16T13:23:21;101772.00;;;22.90
12918;BMP180;6526;54.312;13.092;2022-10-16T13:26:14;101779.00;;;23.00
12918;BMP180;6526;54.312;13.092;2022-10-16T13:28:42;101782.00;;;23.00
12918;BMP180;6526;54.312;13.092;2022-10-16T13:31:21;101799.00;;;23.10
12918;BMP180;6526;54.312;13.092;2022-10-16T13:33:51;101800.00;;;23.00
12918;BMP180;6526;54.312;13.092;2022-10-16T13:36:28;101790.00;;;22.80
12918;BMP180;6526;54.312;13.092;2022-10-16T13:39:13;101797.00;;;22.70
12918;BMP180;6526;54.312;13.092;2022-10-16T13:41:40;101800.00;;;22.70
12918;BMP180;6526;54.312;13.092;2022-10-16T13:44:14;101798.00;;;22.70
12918;BMP180;6526;54.312;13.092;2022-10-16T13:46:41;101808.00;;;22.60
12918;BMP180;6526;54.312;13.092;2022-10-16T13:49:15;101806.00;;;22.60
12918;BMP180;6526;54.312;13.092;2022-10-16T13:51:53;101805.00;;;22.40
12918;BMP180;6526;54.312;13.092;2022-10-16T13:54:19;101815.00;;;22.40
12918;BMP180;6526;54.312;13.092;2022-10-16T13:56:45;101815.00;;;22.40
12918;BMP180;6526;54.312;13.092;2022-10-16T13:59:26;101810.00;;;22.50
12918;BMP180;6526;54.312;13.092;2022-10-16T14:01:56;101824.00;;;22.60
12918;BMP180;6526;54.312;13.092;2022-10-16T14:04:31;101819.00;;;22.70
12918;BMP180;6526;54.312;13.092;2022-10-16T14:06:58;101827.00;;;22.70
12918;BMP180;6526;54.312;13.092;2022-10-16T14:09:25;101830.00;;;22.80
12918;BMP180;6526;54.312;13.092;2022-10-16T14:11:55;101841.00;;;22.70
12918;BMP180;6526;54.312;13.092;2022-10-16T14:14:22;101848.00;;;22.60
12918;BMP180;6526;54.312;13.092;2022-10-16T14:16:49;101849.00;;;22.50
12918;BMP180;6526;54.312;13.092;2022-10-16T14:19:25;101859.00;;;22.60
12918;BMP180;6526;54.312;13.092;2022-10-16T14:21:52;101859.00;;;22.50
12918;BMP180;6526;54.312;13.092;2022-10-16T14:26:57;101860.00;;;22.40
12918;BMP180;6526;54.312;13.092;2022-10-16T14:29:25;101871.00;;;22.40
12918;BMP180;6526;54.312;13.092;2022-10-16T14:31:59;101869.00;;;22.50
12918;BMP180;6526;54.312;13.092;2022-10-16T14:36:54;101877.00;;;22.40
12918;BMP180;6526;54.312;13.092;2022-10-16T14:39:22;101886.00;;;22.40
12918;BMP180;6526;54.312;13.092;2022-10-16T14:41:51;101879.00;;;22.40
12918;BMP180;6526;54.312;13.092;2022-10-16T14:44:18;101887.00;;;22.40
12918;BMP180;6526;54.312;13.092;2022-10-16T14:46:46;101883.00;;;22.20
12918;BMP180;6526;54.312;13.092;2022-10-16T14:49:15;101890.00;;;22.30
12918;BMP180;6526;54.312;13.092;2022-10-16T14:51:42;101889.00;;;22.20
12918;BMP180;6526;54.312;13.092;2022-10-16T14:54:14;101886.00;;;22.10
12918;BMP180;6526;54.312;13.092;2022-10-16T14:56:57;101895.00;;;22.10
12918;BMP180;6526;54.312;13.092;2022-10-16T14:59:39;101892.00;;;22.10
12918;BMP180;6526;54.312;13.092;2022-10-16T15:04:48;101893.00;;;22.00
12918;BMP180;6526;54.312;13.092;2022-10-16T15:07:14;101898.00;;;22.00
12918;BMP180;6526;54.312;13.092;2022-10-16T15:09:40;101904.00;;;22.00
12918;BMP180;6526;54.312;13.092;2022-10-16T15:12:06;101915.00;;;21.80
12918;BMP180;6526;54.312;13.092;2022-10-16T15:14:32;101917.00;;;21.70
12918;BMP180;6526;54.312;13.092;2022-10-16T15:16:59;101912.00;;;21.70
12918;BMP180;6526;54.312;13.092;2022-10-16T15:19:26;101917.00;;;21.70
12918;BMP180;6526;54.312;13.092;2022-10-16T15:21:52;101923.00;;;21.70
12918;BMP180;6526;54.312;13.092;2022-10-16T15:24:18;101931.00;;;21.60
12918;BMP180;6526;54.312;13.092;2022-10-16T15:26:44;101934.00;;;21.70
12918;BMP180;6526;54.312;13.092;2022-10-16T15:29:12;101935.00;;;21.70
12918;BMP180;6526;54.312;13.092;2022-10-16T15:31:38;101951.00;;;21.70
12918;BMP180;6526;54.312;13.092;2022-10-16T15:34:04;101951.00;;;21.60
12918;BMP180;6526;54.312;13.092;2022-10-16T15:36:34;101958.00;;;21.50
12918;BMP180;6526;54.312;13.092;2022-10-16T15:39:04;101961.00;;;21.50
12918;BMP180;6526;54.312;13.092;2022-10-16T15:41:30;101968.00;;;21.50
12918;BMP180;6526;54.312;13.092;2022-10-16T15:43:56;101976.00;;;21.40
12918;BMP180;6526;54.312;13.092;2022-10-16T15:46:23;101980.00;;;21.30
12918;BMP180;6526;54.312;13.092;2022-10-16T15:48:50;101989.00;;;21.40
12918;BMP180;6526;54.312;13.092;2022-10-16T15:51:18;101983.00;;;21.30
12918;BMP180;6526;54.312;13.092;2022-10-16T15:53:44;101995.00;;;21.20
12918;BMP180;6526;54.312;13.092;2022-10-16T15:56:12;102004.00;;;21.20